Time;durP1;ratioP1;P1;durP2;ratioP2;P2;SDS_P1;SDS_P2;PMS_P1;PMS_P2;Temp;Humidity;BMP_temperature;BMP_pressure;BME280_temperature;BME280_humidity;BME280_pressure;Samples;Min_cycle;Max_cycle;Signal;HPM_P1;HPM_P2
2021/06/02 00:02:22;;;;;;;6.95;2.98;;;;;;;11.77;62.42;99846.99;1689976;83;20940;-70
2021/06/02 00:04:51;;;;;;;2.50;2.17;;;;;;;11.74;62.41;99847.51;1679479;83;21058;-69
2021/06/02 00:07:24;;;;;;;3.95;2.20;;;;;;;11.75;62.29;99852.34;1628490;86;21090;-70
2021/06/02 00:09:54;;;;;;;9.03;2.97;;;;;;;11.76;62.12;99843.20;1644930;86;21035;-69
2021/06/02 00:12:22;;;;;;;4.10;2.08;;;;;;;11.78;62.18;99849.16;1667603;84;20997;-69
2021/06/02 00:14:50;;;;;;;2.65;2.45;;;;;;;11.77;62.30;99846.17;1669254;85;21465;-70
2021/06/02 00:17:17;;;;;;;3.58;2.42;;;;;;;11.77;62.35;99846.17;1648382;86;21062;-71
2021/06/02 00:19:45;;;;;;;3.00;1.87;;;;;;;11.77;62.39;99840.78;1648760;85;21031;-70
2021/06/02 00:22:11;;;;;;;3.98;2.40;;;;;;;11.77;62.34;99837.56;1667528;85;20934;-70
2021/06/02 00:24:38;;;;;;;2.70;2.42;;;;;;;11.76;62.36;99843.20;1667605;85;21557;-70
2021/06/02 00:27:08;;;;;;;5.03;2.45;;;;;;;11.77;62.37;99834.05;1667769;85;20961;-71
2021/06/02 00:29:37;;;;;;;4.40;2.37;;;;;;;11.78;62.38;99835.69;1684740;83;21018;-70
2021/06/02 00:32:08;;;;;;;2.95;2.50;;;;;;;11.79;62.29;99831.39;1681801;83;20938;-70
2021/06/02 00:34:34;;;;;;;5.85;2.55;;;;;;;11.80;62.35;99835.69;1647729;86;21567;-70
2021/06/02 00:37:03;;;;;;;4.00;2.00;;;;;;;11.78;62.26;99829.77;1667956;85;20977;-70
2021/06/02 00:39:30;;;;;;;4.08;2.40;;;;;;;11.79;62.26;99827.88;1669383;86;21023;-70
2021/06/02 00:41:57;;;;;;;4.15;2.42;;;;;;;11.80;62.13;99826.27;1670505;84;21056;-70
2021/06/02 00:44:23;;;;;;;2.72;2.20;;;;;;;11.77;62.15;99830.82;1641706;86;21548;-72
2021/06/02 00:46:52;;;;;;;6.15;2.52;;;;;;;11.79;62.15;99821.97;1667819;85;20986;-70
2021/06/02 00:49:26;;;;;;;5.58;3.80;;;;;;;11.82;62.13;99822.50;1651842;83;21588;-71
2021/06/02 00:52:06;;;;;;;3.50;2.50;;;;;;;11.81;62.07;99824.38;1693871;83;21485;-72
2021/06/02 00:54:36;;;;;;;2.77;2.35;;;;;;;11.79;62.14;99819.27;1641895;86;21075;-71
2021/06/02 00:57:13;;;;;;;3.52;2.22;;;;;;;11.79;62.18;99819.27;1668858;86;21195;-70
2021/06/02 00:59:47;;;;;;;7.80;2.37;;;;;;;11.79;62.18;99824.66;1667537;85;21084;-70
2021/06/02 01:02:17;;;;;;;3.52;2.85;;;;;;;11.77;62.23;99820.58;1667952;86;21037;-71
2021/06/02 01:04:43;;;;;;;3.70;3.05;;;;;;;11.74;62.28;99809.78;1667722;85;21596;-69
2021/06/02 01:07:12;;;;;;;2.70;2.25;;;;;;;11.74;62.34;99811.66;1673976;85;21069;-69
2021/06/02 01:09:50;;;;;;;4.90;2.47;;;;;;;11.71;62.55;99816.16;1694820;83;21815;-69
2021/06/02 01:12:21;;;;;;;7.08;2.52;;;;;;;11.70;62.43;99815.91;1705142;82;20956;-70
2021/06/02 01:14:49;;;;;;;4.08;2.75;;;;;;;11.65;62.80;99809.12;1692822;84;21018;-70
2021/06/02 01:17:17;;;;;;;4.03;2.45;;;;;;;11.62;62.74;99815.81;1692870;84;21013;-70
2021/06/02 01:19:44;;;;;;;4.10;2.65;;;;;;;11.63;62.82;99809.89;1692932;84;21126;-69
2021/06/02 01:22:11;;;;;;;5.37;2.20;;;;;;;11.65;62.70;99817.20;1692854;84;21063;-71
2021/06/02 01:24:37;;;;;;;5.92;3.35;;;;;;;11.65;62.86;99819.89;1693141;84;21031;-70
2021/06/02 01:27:08;;;;;;;7.78;2.52;;;;;;;11.64;62.75;99824.47;1692488;84;20982;-69
2021/06/02 01:29:40;;;;;;;4.40;2.83;;;;;;;11.63;62.85;99815.28;1692484;84;20997;-70
2021/06/02 01:32:30;;;;;;;4.20;2.83;;;;;;;11.65;62.79;99817.20;1670005;84;21036;-70
2021/06/02 01:35:31;;;;;;;5.50;2.77;;;;;;;11.63;62.85;99820.67;1692799;83;21215;-70
2021/06/02 01:38:37;;;;;;;7.42;2.67;;;;;;;11.59;62.99;99815.52;1635061;84;20994;-70
2021/06/02 01:41:34;;;;;;;7.17;3.22;;;;;;;11.59;63.02;99816.86;1692478;84;20970;-70
2021/06/02 01:44:43;;;;;;;4.25;2.05;;;;;;;11.58;63.12;99821.43;1649583;84;21160;-69
2021/06/02 01:47:38;;;;;;;10.03;3.55;;;;;;;11.57;63.23;99811.71;1692560;84;21052;-68
2021/06/02 01:50:38;;;;;;;4.33;2.55;;;;;;;11.55;63.38;99813.05;1691982;84;21164;-71
2021/06/02 01:53:25;;;;;;;3.22;2.40;;;;;;;11.52;63.55;99817.58;1693271;83;20965;-69
2021/06/02 01:56:08;;;;;;;4.75;2.55;;;;;;;11.47;63.69;99807.56;1683370;84;20962;-70
2021/06/02 01:58:46;;;;;;;4.50;2.83;;;;;;;11.47;63.72;99815.64;1692741;84;21085;-69
2021/06/02 02:01:55;;;;;;;2.42;2.22;;;;;;;11.47;63.90;99821.02;1692525;84;21115;-69
2021/06/02 02:04:54;;;;;;;3.83;2.55;;;;;;;11.47;63.86;99828.29;1693104;84;21064;-68
2021/06/02 02:07:47;;;;;;;3.42;2.83;;;;;;;11.46;63.87;99826.16;1670047;85;21550;-70
2021/06/02 02:10:42;;;;;;;2.80;2.60;;;;;;;11.47;63.92;99835.84;1684730;84;21025;-71
2021/06/02 02:13:30;;;;;;;2.62;2.37;;;;;;;11.44;64.13;99833.66;1692714;84;21460;-70
2021/06/02 02:16:34;;;;;;;14.68;4.37;;;;;;;11.46;64.01;99834.23;1708330;83;21507;-70
2021/06/02 02:19:20;;;;;;;4.95;2.37;;;;;;;11.45;64.03;99830.44;1692872;84;20984;-70
2021/06/02 02:22:07;;;;;;;2.47;2.27;;;;;;;11.47;63.89;99827.76;1669192;84;20964;-69
2021/06/02 02:25:01;;;;;;;3.85;3.30;;;;;;;11.47;63.88;99828.29;1671573;86;21013;-70
2021/06/02 02:27:51;;;;;;;11.22;2.87;;;;;;;11.47;63.87;99826.94;1675068;84;21087;-71
2021/06/02 02:30:41;;;;;;;2.25;2.05;;;;;;;11.45;64.02;99836.64;1669472;84;20957;-70
2021/06/02 02:33:38;;;;;;;4.87;2.55;;;;;;;11.43;64.11;99837.41;1668548;84;21680;-71
2021/06/02 02:36:44;;;;;;;5.97;2.87;;;;;;;11.41;63.96;99836.05;1665153;83;20989;-69
2021/06/02 02:39:27;;;;;;;3.50;3.02;;;;;;;11.41;64.08;99842.78;1675229;84;21131;-69
2021/06/02 02:42:22;;;;;;;5.70;2.77;;;;;;;11.40;64.24;99839.27;1669295;84;20989;-71
2021/06/02 02:45:32;;;;;;;6.42;3.60;;;;;;;11.40;64.20;99837.93;1647005;86;21483;-69
2021/06/02 02:48:38;;;;;;;3.02;2.77;;;;;;;11.42;64.25;99844.39;1671455;84;22082;-69
2021/06/02 02:51:16;;;;;;;3.67;2.47;;;;;;;11.44;64.13;99842.27;1669992;85;20973;-69
2021/06/02 02:54:10;;;;;;;4.62;3.05;;;;;;;11.46;64.14;99842.31;1670288;85;21046;-69
2021/06/02 02:56:45;;;;;;;3.98;2.33;;;;;;;11.48;64.12;99846.09;1672704;84;21018;-70
2021/06/02 02:59:20;;;;;;;5.67;2.22;;;;;;;11.49;64.20;99857.14;1696407;83;21053;-76
2021/06/02 03:01:53;;;;;;;6.00;3.30;;;;;;;11.52;64.17;99857.45;1692657;84;21078;-70
2021/06/02 03:04:24;;;;;;;3.42;2.95;;;;;;;11.55;64.10;99856.15;1668941;84;21037;-70
2021/06/02 03:06:56;;;;;;;14.47;4.12;;;;;;;11.54;64.13;99858.02;1693013;83;21482;-69
2021/06/02 03:09:49;;;;;;;5.90;3.27;;;;;;;11.52;64.26;99839.13;1692607;84;20975;-69
2021/06/02 03:12:44;;;;;;;9.68;2.72;;;;;;;11.54;64.19;99846.43;1687397;84;21589;-70
2021/06/02 03:15:43;;;;;;;9.63;2.90;;;;;;;11.54;64.26;99852.64;1682829;85;21136;-72
2021/06/02 03:18:33;;;;;;;3.60;2.42;;;;;;;11.52;64.61;99857.98;1683360;83;21109;-71
2021/06/02 03:21:41;;;;;;;11.33;3.12;;;;;;;11.54;64.69;99853.98;1688149;84;21548;-69
2021/06/02 03:24:49;;;;;;;4.92;3.37;;;;;;;11.55;64.32;99862.35;1684208;84;21089;-69
2021/06/02 03:27:36;;;;;;;4.83;3.05;;;;;;;11.58;64.38;99859.67;1689251;84;21012;-73
2021/06/02 03:30:29;;;;;;;8.55;3.75;;;;;;;11.57;64.50;99860.73;1679830;84;21118;-70
2021/06/02 03:33:26;;;;;;;4.05;2.83;;;;;;;11.56;64.55;99854.53;1690895;84;21043;-71
2021/06/02 03:36:30;;;;;;;13.45;3.42;;;;;;;11.57;64.68;99862.08;1685492;84;21553;-70
2021/06/02 03:39:05;;;;;;;4.25;2.72;;;;;;;11.56;64.56;99874.73;1660538;83;21546;-69
2021/06/02 03:42:12;;;;;;;5.28;3.00;;;;;;;11.56;64.62;99880.68;1659274;85;21049;-71
2021/06/02 03:44:52;;;;;;;4.12;2.42;;;;;;;11.56;64.83;99865.30;1685801;84;22088;-70
2021/06/02 03:48:04;;;;;;;7.40;3.45;;;;;;;11.57;64.78;99860.20;1684774;84;21056;-70
2021/06/02 03:50:42;;;;;;;3.12;2.58;;;;;;;11.56;64.99;99862.61;1662445;86;21669;-71
2021/06/02 03:53:47;;;;;;;3.77;2.75;;;;;;;11.54;65.00;99868.80;1680484;83;21022;-71
2021/06/02 03:56:37;;;;;;;4.00;2.35;;;;;;;11.57;65.03;99856.69;1690920;83;21531;-72
2021/06/02 03:59:51;;;;;;;8.88;3.02;;;;;;;11.59;65.07;99852.70;1664591;84;21096;-70
2021/06/02 04:02:20;;;;;;;3.22;2.27;;;;;;;11.60;65.11;99848.13;1689022;84;21520;-70
2021/06/02 04:05:04;;;;;;;3.22;2.60;;;;;;;11.59;65.06;99860.77;1690204;84;21525;-71
2021/06/02 04:07:45;;;;;;;3.00;2.47;;;;;;;11.60;65.07;99862.41;1667025;84;21191;-71
2021/06/02 04:10:37;;;;;;;10.08;2.90;;;;;;;11.58;64.92;99860.48;1690217;84;21011;-70
2021/06/02 04:13:36;;;;;;;4.83;2.80;;;;;;;11.56;65.20;99862.61;1681732;83;21132;-69
2021/06/02 04:16:12;;;;;;;4.72;2.60;;;;;;;11.56;65.28;99860.47;1671579;83;20989;-70
2021/06/02 04:18:42;;;;;;;5.05;2.35;;;;;;;11.58;65.44;99859.67;1668802;84;21003;-69
2021/06/02 04:21:10;;;;;;;5.53;2.67;;;;;;;11.59;65.36;99860.77;1691918;84;20984;-70
2021/06/02 04:23:38;;;;;;;8.73;3.20;;;;;;;11.64;65.19;99854.63;1693038;84;21082;-70
2021/06/02 04:26:05;;;;;;;10.15;2.70;;;;;;;11.67;65.11;99860.84;1669045;84;21273;-70
2021/06/02 04:28:34;;;;;;;3.15;2.83;;;;;;;11.70;65.22;99857.67;1719164;83;21223;-70
2021/06/02 04:31:08;;;;;;;4.70;2.42;;;;;;;11.72;65.12;99846.94;1727572;83;21042;-70
2021/06/02 04:33:37;;;;;;;4.97;2.95;;;;;;;11.74;64.99;99847.51;1726128;83;20966;-71
2021/06/02 04:36:09;;;;;;;3.45;2.87;;;;;;;11.78;64.96;99844.58;1727507;83;20954;-69
2021/06/02 04:38:35;;;;;;;5.55;2.58;;;;;;;11.81;64.86;99852.68;1727607;83;20966;-69
2021/06/02 04:41:05;;;;;;;3.90;2.62;;;;;;;11.84;64.77;99846.80;1727510;83;20934;-71
2021/06/02 04:43:34;;;;;;;9.28;3.20;;;;;;;11.86;64.73;99851.91;1727742;83;21053;-69
2021/06/02 04:46:03;;;;;;;7.83;2.90;;;;;;;11.88;64.50;99847.91;1727572;83;21456;-70
2021/06/02 04:48:30;;;;;;;4.37;2.77;;;;;;;11.92;64.56;99862.50;1675414;83;21526;-70
2021/06/02 04:51:21;;;;;;;13.03;2.87;;;;;;;11.93;64.63;99856.05;1727422;83;21091;-71
2021/06/02 04:54:05;;;;;;;7.67;3.47;;;;;;;11.96;64.60;99847.98;1727766;83;20895;-69
2021/06/02 04:57:18;;;;;;;2.65;2.17;;;;;;;12.00;64.57;99845.86;1727408;83;21494;-71
2021/06/02 05:00:11;;;;;;;8.63;2.60;;;;;;;12.06;64.41;99846.20;1702785;83;21487;-69
2021/06/02 05:03:22;;;;;;;6.70;3.25;;;;;;;12.11;64.15;99847.59;1727579;83;21531;-71
2021/06/02 05:06:26;;;;;;;6.72;3.25;;;;;;;12.13;64.22;99855.44;1727477;83;21568;-70
2021/06/02 05:09:38;;;;;;;4.72;3.35;;;;;;;12.14;64.33;99850.30;1725000;83;20939;-71
2021/06/02 05:12:54;;;;;;;8.05;3.50;;;;;;;12.14;64.63;99840.33;1668103;86;21220;-70
2021/06/02 05:15:43;;;;;;;6.15;3.12;;;;;;;12.16;64.53;99847.64;1563228;90;21520;-72
2021/06/02 05:18:58;;;;;;;4.25;2.37;;;;;;;12.21;64.46;99857.13;1654387;86;21554;-70
2021/06/02 05:22:16;;;;;;;7.85;2.85;;;;;;;12.24;64.56;99848.52;1655284;86;21267;-71
2021/06/02 05:25:24;;;;;;;3.95;2.00;;;;;;;12.32;64.82;99858.56;1628327;86;21073;-70
2021/06/02 05:28:27;;;;;;;3.62;2.52;;;;;;;12.37;65.01;99864.83;1704685;83;21532;-70
2021/06/02 05:31:31;;;;;;;7.72;2.87;;;;;;;12.42;65.25;99866.18;1677048;83;21059;-70
2021/06/02 05:34:22;;;;;;;5.90;2.72;;;;;;;12.44;65.59;99864.05;1683036;83;26684;-71
2021/06/02 05:37:26;;;;;;;6.30;3.25;;;;;;;12.44;65.99;99849.22;1682032;83;21161;-71
2021/06/02 05:40:24;;;;;;;8.70;3.90;;;;;;;12.44;66.26;99861.89;1710233;83;20923;-71
2021/06/02 05:43:27;;;;;;;10.72;3.02;;;;;;;12.43;67.22;99865.12;1711097;83;20978;-70
2021/06/02 05:46:54;;;;;;;6.37;3.17;;;;;;;12.41;68.42;99857.84;1674151;85;21166;-70
2021/06/02 05:49:55;;;;;;;3.70;2.98;;;;;;;12.36;68.51;99866.41;1667554;84;21029;-72
2021/06/02 05:52:26;;;;;;;6.78;2.40;;;;;;;12.43;68.72;99867.00;1648257;86;21249;-70
2021/06/02 05:55:13;;;;;;;5.28;3.52;;;;;;;12.47;68.70;99856.00;1657379;86;21046;-72
2021/06/02 05:58:20;;;;;;;5.95;3.10;;;;;;;12.52;68.40;99866.80;1667386;85;21038;-71
2021/06/02 06:01:24;;;;;;;3.20;2.85;;;;;;;12.57;68.49;99871.70;1648403;86;21538;-70
2021/06/02 06:04:25;;;;;;;2.87;2.05;;;;;;;12.65;67.77;99862.34;1667790;86;21053;-72
2021/06/02 06:07:10;;;;;;;4.35;2.75;;;;;;;12.71;67.60;99867.23;1648236;86;21052;-71
2021/06/02 06:10:10;;;;;;;7.85;2.75;;;;;;;12.74;66.60;99873.45;1705860;83;20982;-72
2021/06/02 06:13:07;;;;;;;6.72;2.72;;;;;;;12.78;66.73;99871.33;1684858;83;20986;-71
2021/06/02 06:15:56;;;;;;;4.08;2.65;;;;;;;12.85;66.20;99877.33;1672959;85;21507;-71
2021/06/02 06:19:03;;;;;;;3.83;2.95;;;;;;;12.90;65.90;99874.62;1627030;87;21076;-72
2021/06/02 06:22:02;;;;;;;2.95;2.55;;;;;;;12.95;65.30;99876.58;1655153;85;21628;-71
2021/06/02 06:24:50;;;;;;;6.42;3.25;;;;;;;13.00;64.74;99862.55;1636189;87;21057;-72
2021/06/02 06:27:31;;;;;;;3.85;2.95;;;;;;;13.05;64.46;99865.81;1648329;86;21035;-71
2021/06/02 06:30:08;;;;;;;6.10;2.72;;;;;;;13.10;64.25;99869.36;1645534;85;21124;-71
2021/06/02 06:32:36;;;;;;;6.17;2.50;;;;;;;13.16;63.98;99864.83;1675659;85;20982;-70
2021/06/02 06:35:04;;;;;;;5.03;2.52;;;;;;;13.23;63.59;99869.47;1675689;85;21956;-71
2021/06/02 06:37:35;;;;;;;7.80;2.52;;;;;;;13.30;63.22;99865.98;1637589;86;21210;-71
2021/06/02 06:40:08;;;;;;;14.30;2.98;;;;;;;13.37;63.51;99855.77;1615021;88;20931;-69
2021/06/02 06:42:44;;;;;;;3.85;2.87;;;;;;;13.47;63.11;99859.86;1632915;87;21123;-71
2021/06/02 06:45:33;;;;;;;8.00;2.83;;;;;;;13.56;62.39;99841.23;1588914;88;21082;-70
2021/06/02 06:48:03;;;;;;;8.08;2.55;;;;;;;13.65;61.93;99855.85;1608236;87;21234;-71
2021/06/02 06:50:29;;;;;;;2.35;2.15;;;;;;;13.75;62.05;99859.13;1642401;87;21570;-72
2021/06/02 06:53:00;;;;;;;3.15;2.20;;;;;;;13.83;61.86;99866.17;1633073;87;20986;-71
2021/06/02 06:55:26;;;;;;;3.75;2.12;;;;;;;13.90;61.41;99865.92;1614757;87;21144;-72
2021/06/02 06:57:52;;;;;;;5.58;2.33;;;;;;;13.95;60.63;99863.23;1608619;87;21117;-70
2021/06/02 07:00:20;;;;;;;4.85;3.65;;;;;;;13.99;59.87;99865.67;1616239;87;21065;-70
2021/06/02 07:02:46;;;;;;;2.15;1.95;;;;;;;13.99;60.02;99857.56;1632675;87;20990;-70
2021/06/02 07:05:13;;;;;;;3.95;3.47;;;;;;;13.98;60.28;99864.86;1616092;87;21545;-70
2021/06/02 07:07:42;;;;;;;3.65;2.47;;;;;;;14.03;60.56;99865.41;1632565;87;21644;-70
2021/06/02 07:10:11;;;;;;;5.45;2.33;;;;;;;14.10;60.25;99857.83;1619111;85;20986;-71
2021/06/02 07:12:38;;;;;;;4.40;2.10;;;;;;;14.18;59.94;99853.80;1672292;85;21179;-71
2021/06/02 07:15:07;;;;;;;5.85;2.27;;;;;;;14.26;59.68;99867.59;1621553;87;21038;-70
2021/06/02 07:17:47;;;;;;;13.38;2.80;;;;;;;14.33;59.58;99853.27;1682892;85;21051;-69
2021/06/02 07:20:21;;;;;;;12.80;2.25;;;;;;;14.42;59.44;99858.16;1682707;85;21035;-70
2021/06/02 07:22:48;;;;;;;7.80;2.15;;;;;;;14.50;58.41;99850.84;1683000;85;20947;-71
2021/06/02 07:25:17;;;;;;;3.87;1.77;;;;;;;14.57;58.54;99868.98;1682619;84;22460;-71
2021/06/02 07:27:45;;;;;;;4.97;2.25;;;;;;;14.61;57.42;99860.05;1655396;85;21056;-71
2021/06/02 07:30:15;;;;;;;2.62;2.08;;;;;;;14.63;57.02;99876.81;1702509;83;21507;-72
2021/06/02 07:32:44;;;;;;;3.37;2.58;;;;;;;14.63;57.45;99859.76;1711453;83;21014;-72
2021/06/02 07:35:12;;;;;;;6.85;2.70;;;;;;;14.63;57.50;99876.00;1682861;83;21098;-70
2021/06/02 07:37:38;;;;;;;16.00;3.45;;;;;;;14.64;57.57;99868.16;1697434;83;21149;-71
2021/06/02 07:40:06;;;;;;;9.40;2.42;;;;;;;14.63;57.57;99851.09;1667454;85;21036;-70
2021/06/02 07:42:33;;;;;;;5.03;2.50;;;;;;;14.64;57.48;99859.50;1648294;86;21154;-71
2021/06/02 07:45:00;;;;;;;9.35;2.90;;;;;;;14.63;57.27;99865.98;1648244;86;21029;-69
2021/06/02 07:47:28;;;;;;;7.42;2.50;;;;;;;14.65;57.12;99861.66;1647994;86;21019;-70
2021/06/02 07:49:55;;;;;;;13.75;2.83;;;;;;;14.72;57.31;99867.06;1691947;82;21146;-71
2021/06/02 07:52:24;;;;;;;14.35;4.25;;;;;;;14.74;56.60;99874.92;1655448;85;21597;-71
2021/06/02 07:54:51;;;;;;;8.03;2.62;;;;;;;14.75;56.78;99884.13;1682984;85;21027;-70
2021/06/02 07:57:17;;;;;;;5.62;2.42;;;;;;;14.78;57.07;99894.41;1654834;85;21067;-72
2021/06/02 07:59:44;;;;;;;5.10;2.20;;;;;;;14.81;57.22;99891.17;1684020;85;21051;-71
2021/06/02 08:02:10;;;;;;;12.95;2.98;;;;;;;14.85;56.62;99887.37;1682905;85;21630;-72
2021/06/02 08:04:37;;;;;;;9.45;2.42;;;;;;;14.83;56.60;99880.86;1682607;85;21145;-69
2021/06/02 08:07:07;;;;;;;3.85;2.10;;;;;;;14.81;56.72;99881.70;1682579;84;20995;-71
2021/06/02 08:09:32;;;;;;;6.87;2.52;;;;;;;14.79;56.53;99865.44;1682662;85;21074;-69
2021/06/02 08:11:59;;;;;;;15.38;2.98;;;;;;;14.79;56.83;99873.56;1673978;83;21070;-72
2021/06/02 08:14:25;;;;;;;6.12;1.95;;;;;;;14.84;56.76;99864.89;1656155;85;21722;-71
2021/06/02 08:16:52;;;;;;;3.45;2.75;;;;;;;14.95;56.54;99875.71;1672764;85;20974;-70
2021/06/02 08:19:19;;;;;;;4.45;3.75;;;;;;;15.03;56.17;99871.08;1673005;85;20994;-70
2021/06/02 08:21:46;;;;;;;13.85;3.47;;;;;;;15.10;55.54;99870.27;1672841;85;21570;-70
2021/06/02 08:24:12;;;;;;;5.80;1.98;;;;;;;15.17;55.77;99881.61;1672961;85;20969;-71
2021/06/02 08:26:40;;;;;;;4.83;2.12;;;;;;;15.25;55.44;99867.52;1672911;85;21146;-69
2021/06/02 08:29:06;;;;;;;10.68;2.50;;;;;;;15.32;55.52;99870.73;1688653;83;20947;-71
2021/06/02 08:31:33;;;;;;;9.95;2.33;;;;;;;15.40;55.48;99885.05;1672970;84;21525;-70
2021/06/02 08:34:00;;;;;;;4.10;2.37;;;;;;;15.47;55.60;99882.06;1644059;86;21092;-71
2021/06/02 08:36:27;;;;;;;7.50;2.35;;;;;;;15.59;55.59;99890.70;1655275;85;21057;-70
2021/06/02 08:38:54;;;;;;;7.30;2.45;;;;;;;15.68;54.78;99877.64;1675644;85;21322;-70
2021/06/02 08:41:20;;;;;;;8.43;3.33;;;;;;;15.74;54.46;99889.28;1639650;86;21485;-70
2021/06/02 08:43:49;;;;;;;5.20;2.10;;;;;;;15.81;54.44;99880.31;1664947;86;22250;-71
2021/06/02 08:46:16;;;;;;;5.87;2.55;;;;;;;15.81;54.02;99889.80;1664856;85;21060;-71
2021/06/02 08:48:51;;;;;;;8.83;2.45;;;;;;;15.77;53.60;99893.35;1652674;86;21122;-70
2021/06/02 08:51:18;;;;;;;7.83;2.17;;;;;;;15.72;54.49;99893.38;1642491;87;21169;-70
2021/06/02 08:53:48;;;;;;;2.95;2.55;;;;;;;15.66;54.84;99893.40;1632820;87;21488;-71
2021/06/02 08:56:16;;;;;;;3.67;2.40;;;;;;;15.68;55.46;99886.35;1642447;87;21002;-70
2021/06/02 08:58:42;;;;;;;3.02;2.30;;;;;;;15.65;55.24;99879.56;1632582;87;21549;-69
2021/06/02 09:01:09;;;;;;;3.22;1.82;;;;;;;15.61;55.10;99896.13;1642376;87;20991;-72
2021/06/02 09:03:37;;;;;;;3.10;2.10;;;;;;;15.60;54.92;99895.86;1632761;87;21182;-71
2021/06/02 09:06:08;;;;;;;10.53;1.80;;;;;;;15.58;54.68;99893.17;1642307;87;21022;-72
2021/06/02 09:08:39;;;;;;;4.03;1.87;;;;;;;15.51;54.98;99898.06;1632756;87;20908;-70
2021/06/02 09:11:14;;;;;;;1.75;1.62;;;;;;;15.45;55.07;99893.70;1642772;85;21555;-72
2021/06/02 09:13:42;;;;;;;7.60;2.25;;;;;;;15.43;55.25;99880.99;1591651;89;21040;-69
2021/06/02 09:16:30;;;;;;;8.30;2.00;;;;;;;15.42;55.13;99891.56;1622873;86;21418;-69
2021/06/02 09:19:00;;;;;;;4.92;1.87;;;;;;;15.43;55.27;99890.48;1646716;85;21023;-72
2021/06/02 09:21:30;;;;;;;10.93;2.55;;;;;;;15.47;55.48;99896.97;1639480;86;21021;-69
2021/06/02 09:23:57;;;;;;;5.03;1.57;;;;;;;15.50;54.77;99892.34;1654260;85;20940;-70
2021/06/02 09:26:26;;;;;;;5.05;2.05;;;;;;;15.54;55.00;99894.25;1641863;86;21637;-67
2021/06/02 09:29:15;;;;;;;2.77;1.82;;;;;;;15.58;54.77;99895.88;1670315;85;21121;-69
2021/06/02 09:31:41;;;;;;;4.55;1.90;;;;;;;15.64;54.74;99885.26;1642850;83;21066;-71
2021/06/02 09:34:22;;;;;;;3.35;2.30;;;;;;;15.73;54.81;99893.08;1693568;83;21049;-76
2021/06/02 09:36:51;;;;;;;5.37;1.90;;;;;;;15.81;54.63;99884.92;1663513;86;21080;-74
2021/06/02 09:39:21;;;;;;;1.98;1.87;;;;;;;15.93;54.53;99886.20;1670214;85;20911;-71
2021/06/02 09:41:51;;;;;;;2.22;2.00;;;;;;;16.06;54.25;99886.14;1669370;86;21038;-69
2021/06/02 09:44:27;;;;;;;3.42;1.95;;;;;;;16.18;54.55;99891.20;1667692;85;20954;-71
2021/06/02 09:47:04;;;;;;;6.08;2.00;;;;;;;16.30;53.82;99872.67;1668347;85;21063;-75
2021/06/02 09:49:54;;;;;;;4.83;2.17;;;;;;;16.31;51.98;99872.37;1670648;84;20943;-72
2021/06/02 09:52:48;;;;;;;5.15;2.50;;;;;;;16.36;51.81;99885.09;1672332;85;21508;-68
2021/06/02 09:55:22;;;;;;;3.62;1.62;;;;;;;16.40;51.99;99884.25;1645877;85;21527;-69
2021/06/02 09:58:10;;;;;;;1.50;1.40;;;;;;;16.44;51.70;99888.04;1642854;86;28719;-67
2021/06/02 10:00:55;;;;;;;2.62;1.82;;;;;;;16.50;51.58;99884.72;1670336;86;21022;-71
2021/06/02 10:03:32;;;;;;;7.00;3.30;;;;;;;16.50;51.58;99888.24;1670342;86;20994;-70
2021/06/02 10:05:57;;;;;;;5.58;2.60;;;;;;;16.55;51.18;99899.61;1670320;85;21007;-68
2021/06/02 10:08:31;;;;;;;10.15;1.98;;;;;;;16.59;51.13;99905.34;1642048;86;21100;-70
2021/06/02 10:11:16;;;;;;;1.77;1.55;;;;;;;16.58;50.87;99889.59;1673017;83;21006;-69
2021/06/02 10:13:42;;;;;;;4.90;2.20;;;;;;;16.58;50.56;99896.38;1668241;85;21479;-70
2021/06/02 10:16:10;;;;;;;10.70;2.80;;;;;;;16.62;50.76;99889.28;1649040;86;20997;-68
2021/06/02 10:18:39;;;;;;;11.57;3.67;;;;;;;16.66;50.62;99878.10;1648420;84;21615;-73
2021/06/02 10:21:13;;;;;;;10.05;2.12;;;;;;;16.69;50.11;99901.97;1649340;83;21069;-71
2021/06/02 10:23:45;;;;;;;6.90;1.92;;;;;;;16.73;50.15;99894.08;1665138;85;21491;-71
2021/06/02 10:26:17;;;;;;;13.10;2.92;;;;;;;16.75;49.57;99905.45;1667392;85;20958;-71
2021/06/02 10:28:49;;;;;;;4.03;1.85;;;;;;;16.76;49.98;99909.80;1668085;85;21083;-70
2021/06/02 10:31:15;;;;;;;9.98;2.10;;;;;;;16.74;49.79;99897.84;1667566;86;21050;-72
2021/06/02 10:33:44;;;;;;;12.40;2.60;;;;;;;16.74;50.30;99907.36;1669082;83;21159;-70
2021/06/02 10:36:10;;;;;;;11.88;2.35;;;;;;;16.79;50.36;99911.39;1673410;83;21084;-69
2021/06/02 10:38:45;;;;;;;8.30;3.33;;;;;;;16.82;50.40;99914.91;1670334;86;21515;-68
2021/06/02 10:41:28;;;;;;;7.33;2.15;;;;;;;16.82;50.70;99910.83;1626883;86;21059;-70
2021/06/02 10:44:08;;;;;;;3.67;1.95;;;;;;;16.81;50.28;99918.72;1670146;83;21011;-69
2021/06/02 10:46:37;;;;;;;3.35;2.15;;;;;;;16.84;50.27;99915.96;1670673;84;21134;-72
2021/06/02 10:49:04;;;;;;;2.87;2.37;;;;;;;16.86;50.20;99913.78;1674596;84;21278;-72
2021/06/02 10:51:36;;;;;;;2.77;2.50;;;;;;;16.84;50.18;99915.42;1685290;83;21060;-70
2021/06/02 10:54:15;;;;;;;11.10;2.10;;;;;;;16.87;49.35;99910.79;1651517;85;21055;-71
2021/06/02 10:57:04;;;;;;;4.35;1.90;;;;;;;16.89;49.79;99906.41;1671275;85;20910;-72
2021/06/02 10:59:35;;;;;;;3.77;1.57;;;;;;;16.92;49.40;99907.22;1654911;86;22099;-69
2021/06/02 11:02:18;;;;;;;2.35;1.70;;;;;;;16.94;48.99;99900.38;1666292;83;21018;-68
2021/06/02 11:05:04;;;;;;;2.83;1.80;;;;;;;16.97;48.95;99912.60;1690383;83;21014;-69
2021/06/02 11:07:31;;;;;;;9.80;2.60;;;;;;;16.98;48.75;99909.58;1628692;86;20986;-73
2021/06/02 11:10:12;;;;;;;2.50;1.50;;;;;;;16.98;49.08;99912.30;1672643;83;21102;-69
2021/06/02 11:12:55;;;;;;;20.45;4.53;;;;;;;17.04;49.29;99917.69;1689284;83;21959;-72
2021/06/02 11:15:38;;;;;;;10.10;3.05;;;;;;;17.06;49.11;99918.22;1682589;84;20963;-69
2021/06/02 11:18:20;;;;;;;11.30;3.02;;;;;;;17.13;49.31;99918.67;1682648;85;20983;-69
2021/06/02 11:20:55;;;;;;;6.78;1.90;;;;;;;17.21;49.29;99907.20;1644537;86;21018;-71
2021/06/02 11:23:35;;;;;;;5.08;2.42;;;;;;;17.25;48.56;99917.75;1654957;86;21043;-73
2021/06/02 11:26:23;;;;;;;3.15;1.60;;;;;;;17.30;48.49;99914.98;1671529;85;21588;-69
2021/06/02 11:28:50;;;;;;;3.67;1.77;;;;;;;17.36;48.11;99916.55;1688105;83;21124;-70
2021/06/02 11:31:28;;;;;;;12.30;1.72;;;;;;;17.38;48.01;99920.59;1708909;83;21004;-72
2021/06/02 11:34:30;;;;;;;5.03;2.15;;;;;;;17.42;48.36;99909.39;1628198;86;21046;-70
2021/06/02 11:37:07;;;;;;;6.83;2.52;;;;;;;17.48;48.17;99915.59;1629889;86;21091;-70
2021/06/02 11:39:37;;;;;;;5.30;1.72;;;;;;;17.53;48.02;99916.89;1647464;86;21069;-71
2021/06/02 11:42:07;;;;;;;6.30;2.40;;;;;;;17.58;48.00;99918.73;1648163;86;21287;-70
2021/06/02 11:44:36;;;;;;;4.58;2.08;;;;;;;17.62;47.73;99896.68;1668269;86;21078;-81
2021/06/02 11:47:04;;;;;;;2.15;1.45;;;;;;;17.64;46.91;99917.61;1671001;84;21114;-69
2021/06/02 11:49:33;;;;;;;2.77;1.42;;;;;;;17.68;46.81;99907.22;1670464;84;20995;-68
2021/06/02 11:52:11;;;;;;;2.65;1.72;;;;;;;17.72;46.89;99906.89;1674438;83;21647;-70
2021/06/02 11:54:50;;;;;;;7.17;2.47;;;;;;;17.81;47.03;99913.84;1676161;83;21005;-70
2021/06/02 11:57:36;;;;;;;8.10;1.98;;;;;;;17.89;46.07;99911.83;1648221;86;21092;-69
2021/06/02 12:00:22;;;;;;;1.50;1.40;;;;;;;17.95;45.56;99914.75;1651859;85;20972;-72
2021/06/02 12:02:58;;;;;;;10.00;1.92;;;;;;;18.00;45.52;99908.42;1646384;86;21038;-73
2021/06/02 12:05:30;;;;;;;4.53;1.57;;;;;;;18.03;45.75;99907.86;1651603;85;21079;-73
2021/06/02 12:08:04;;;;;;;3.35;2.00;;;;;;;18.09;46.13;99917.00;1655050;85;21038;-72
2021/06/02 12:10:34;;;;;;;8.83;2.15;;;;;;;18.15;45.45;99901.41;1668466;85;21631;-76
2021/06/02 12:13:04;;;;;;;4.87;1.80;;;;;;;18.18;45.01;99911.70;1696771;83;20975;-72
2021/06/02 12:15:47;;;;;;;4.33;1.67;;;;;;;18.22;44.76;99913.53;1646583;85;21054;-71
2021/06/02 12:18:43;;;;;;;5.25;1.75;;;;;;;18.29;44.59;99908.55;1670637;86;20931;-71
2021/06/02 12:21:17;;;;;;;6.33;1.60;;;;;;;18.37;44.60;99891.30;1668647;85;20981;-71
2021/06/02 12:24:04;;;;;;;4.35;2.30;;;;;;;18.46;44.49;99907.22;1667961;86;21072;-73
2021/06/02 12:26:42;;;;;;;6.47;1.72;;;;;;;18.49;44.59;99912.06;1653388;85;21063;-75
2021/06/02 12:29:14;;;;;;;5.70;1.70;;;;;;;18.50;44.58;99910.41;1682846;84;20974;-72